Time;durP1;ratioP1;P1;durP2;ratioP2;P2;SDS_P1;SDS_P2;PMS_P1;PMS_P2;Temp;Humidity;BMP_temperature;BMP_pressure;BME280_temperature;BME280_humidity;BME280_pressure;Samples;Min_cycle;Max_cycle;Signal;HPM_P1;HPM_P2
2022/06/11 00:02:01;;;;;;;1.67;0.88;;;;;;;16.20;100.00;98930.13;15278087;19;20608;-50
2022/06/11 00:07:11;;;;;;;1.50;0.80;;;;;;;16.11;100.00;98932.91;15279501;19;20018;-47
2022/06/11 00:12:19;;;;;;;1.58;0.88;;;;;;;16.02;100.00;98924.00;15270703;19;20023;-48
2022/06/11 00:17:26;;;;;;;1.30;0.70;;;;;;;15.95;100.00;98928.47;15280220;19;20007;-50
2022/06/11 00:22:31;;;;;;;3.25;0.90;;;;;;;15.83;100.00;98936.19;15271939;19;20014;-49
2022/06/11 00:27:39;;;;;;;1.23;0.70;;;;;;;15.77;100.00;98933.34;15280769;19;20031;-50
2022/06/11 00:32:45;;;;;;;1.73;0.80;;;;;;;15.69;100.00;98932.41;15279872;19;20007;-48
2022/06/11 00:37:51;;;;;;;1.58;0.80;;;;;;;15.65;100.00;98925.63;15279543;19;20090;-47
2022/06/11 00:42:58;;;;;;;1.13;0.75;;;;;;;15.61;100.00;98927.00;15278853;19;20057;-47
2022/06/11 00:48:07;;;;;;;3.17;1.00;;;;;;;15.54;100.00;98928.78;15269723;19;20015;-47
2022/06/11 00:53:17;;;;;;;2.45;0.90;;;;;;;15.44;100.00;98915.44;15276359;19;20467;-47
2022/06/11 00:58:28;;;;;;;4.72;1.00;;;;;;;15.40;100.00;98920.38;15271187;19;20046;-47
2022/06/11 01:03:36;;;;;;;2.30;1.00;;;;;;;15.30;100.00;98921.63;15279588;19;20026;-49
2022/06/11 01:08:51;;;;;;;2.33;0.90;;;;;;;15.13;100.00;98927.19;15286472;19;20491;-45
2022/06/11 01:14:13;;;;;;;3.85;0.90;;;;;;;15.07;100.00;98919.72;15290514;19;20031;-50
2022/06/11 01:19:43;;;;;;;2.75;1.13;;;;;;;15.00;100.00;98918.75;15284064;19;20532;-49
2022/06/11 01:24:58;;;;;;;4.38;1.35;;;;;;;14.93;100.00;98911.31;15292878;19;20023;-50
2022/06/11 01:30:09;;;;;;;3.13;1.00;;;;;;;14.85;100.00;98908.66;15284242;19;20364;-48
2022/06/11 01:35:31;;;;;;;2.45;1.02;;;;;;;14.77;100.00;98909.53;15288830;19;20031;-50
2022/06/11 01:40:42;;;;;;;2.67;0.95;;;;;;;14.70;100.00;98900.41;15288548;19;20026;-51
2022/06/11 01:45:51;;;;;;;;;;;;;;;14.66;100.00;98899.03;15293101;19;20372;-48
2022/06/11 01:51:18;;;;;;;2.97;1.00;;;;;;;14.62;100.00;98901.25;15282381;19;19914;-50
2022/06/11 01:56:46;;;;;;;3.42;1.00;;;;;;;14.58;100.00;98904.50;15282784;19;20015;-47
2022/06/11 02:02:05;;;;;;;1.60;0.90;;;;;;;14.53;100.00;98901.47;15280842;19;20413;-50
2022/06/11 02:07:19;;;;;;;1.83;0.98;;;;;;;14.51;100.00;98900.81;15286113;19;20031;-51
2022/06/11 02:12:30;;;;;;;1.80;0.95;;;;;;;14.45;100.00;98899.66;15285496;19;20014;-52
2022/06/11 02:17:42;;;;;;;2.58;1.02;;;;;;;14.40;100.00;98905.59;15283984;19;20679;-51
2022/06/11 02:22:54;;;;;;;1.83;1.02;;;;;;;14.33;100.00;98902.72;15277466;19;20022;-48
2022/06/11 02:28:03;;;;;;;1.98;1.05;;;;;;;14.28;100.00;98898.84;15286569;19;20373;-51
2022/06/11 02:33:15;;;;;;;2.17;1.00;;;;;;;14.23;100.00;98906.66;15283782;19;20034;-51
2022/06/11 02:38:23;;;;;;;2.95;1.08;;;;;;;14.16;100.00;98901.94;15288559;19;20022;-51
2022/06/11 02:43:29;;;;;;;3.80;1.02;;;;;;;14.11;100.00;98908.88;15288151;19;20010;-48
2022/06/11 02:48:36;;;;;;;2.28;1.10;;;;;;;14.08;100.00;98912.75;15284314;19;20437;-48
2022/06/11 02:53:42;;;;;;;2.13;1.00;;;;;;;14.05;100.00;98904.16;15279678;19;20488;-46
2022/06/11 02:58:47;;;;;;;2.47;0.90;;;;;;;14.00;100.00;98915.50;15282634;19;20396;-48
2022/06/11 03:03:57;;;;;;;1.77;0.95;;;;;;;13.94;100.00;98913.47;15281156;19;20015;-49
2022/06/11 03:09:03;;;;;;;2.15;1.10;;;;;;;13.90;100.00;98922.97;15282113;19;20018;-46
2022/06/11 03:14:10;;;;;;;3.50;1.00;;;;;;;13.87;100.00;98919.56;15279950;19;20007;-50
2022/06/11 03:19:20;;;;;;;1.77;1.00;;;;;;;13.91;100.00;98919.25;15284231;19;20014;-51
2022/06/11 03:24:27;;;;;;;1.55;0.90;;;;;;;13.92;100.00;98923.63;15283592;19;20024;-48
2022/06/11 03:29:32;;;;;;;2.00;1.10;;;;;;;13.95;100.00;98932.25;15272966;19;20042;-48
2022/06/11 03:34:40;;;;;;;2.67;1.15;;;;;;;14.02;100.00;98935.13;15283643;19;20042;-48
2022/06/11 03:39:45;;;;;;;2.20;1.10;;;;;;;14.08;100.00;98939.84;15274039;19;20018;-65
2022/06/11 03:44:50;;;;;;;3.15;0.90;;;;;;;14.15;100.00;98932.75;15274186;19;20013;-65
2022/06/11 03:49:58;;;;;;;2.25;1.00;;;;;;;14.23;100.00;98937.28;15284488;19;20026;-64
2022/06/11 03:55:03;;;;;;;1.90;1.00;;;;;;;14.28;100.00;98943.06;15279554;19;20046;-64
2022/06/11 04:00:12;;;;;;;1.95;0.95;;;;;;;14.36;100.00;98944.03;15277236;19;20011;-61
2022/06/11 04:05:20;;;;;;;2.63;0.98;;;;;;;14.41;100.00;98947.94;15281519;19;20023;-66
2022/06/11 04:10:25;;;;;;;0.77;0.75;;;;;;;14.47;100.00;98944.53;15279018;19;20019;-63
2022/06/11 04:15:30;;;;;;;2.70;1.17;;;;;;;14.56;100.00;98947.22;15280215;19;20014;-66
2022/06/11 04:20:38;;;;;;;2.10;0.90;;;;;;;14.62;100.00;98954.66;15280449;19;20026;-66
2022/06/11 04:25:45;;;;;;;3.20;0.82;;;;;;;14.70;100.00;98956.53;15270120;19;20022;-65
2022/06/11 04:30:50;;;;;;;2.35;1.20;;;;;;;14.78;100.00;98943.78;15271710;19;20014;-65
2022/06/11 04:35:58;;;;;;;2.22;1.10;;;;;;;14.87;100.00;98951.91;15272295;19;20026;-64
2022/06/11 04:41:04;;;;;;;2.75;1.30;;;;;;;14.93;100.00;98954.72;15282294;19;20018;-64
2022/06/11 04:46:08;;;;;;;3.70;1.10;;;;;;;15.04;100.00;98958.09;15293131;19;20055;-64
2022/06/11 04:51:22;;;;;;;2.50;0.88;;;;;;;15.14;100.00;98953.28;15295507;19;20037;-64
2022/06/11 04:56:31;;;;;;;2.00;1.00;;;;;;;15.24;100.00;98953.03;15288828;19;20479;-64
2022/06/11 05:01:36;;;;;;;1.92;1.00;;;;;;;15.33;100.00;98959.28;15289743;19;20010;-64
2022/06/11 05:06:48;;;;;;;2.20;1.10;;;;;;;15.44;100.00;98960.75;15288177;19;20038;-64
2022/06/11 05:11:54;;;;;;;;;;;;;;;15.55;100.00;98963.88;15291948;19;20018;-64
2022/06/11 05:17:01;;;;;;;3.55;0.98;;;;;;;15.63;100.00;98957.56;15285929;19;19923;-63
2022/06/11 05:22:09;;;;;;;2.08;1.00;;;;;;;15.75;100.00;98965.28;15288022;19;20380;-58
2022/06/11 05:27:17;;;;;;;3.08;0.90;;;;;;;15.85;100.00;98968.63;15292443;19;20014;-61
2022/06/11 05:32:22;;;;;;;1.85;0.90;;;;;;;15.94;100.00;98975.69;15289357;19;20019;-61
2022/06/11 05:37:30;;;;;;;2.03;1.00;;;;;;;16.02;100.00;98974.78;15281137;19;20020;-61
2022/06/11 05:42:35;;;;;;;1.80;1.00;;;;;;;16.13;100.00;98973.50;15288562;19;20032;-61
2022/06/11 05:47:41;;;;;;;1.67;0.90;;;;;;;16.23;100.00;98968.66;15287500;19;20123;-61
2022/06/11 05:52:49;;;;;;;1.38;0.85;;;;;;;16.33;100.00;98988.25;15285363;19;20025;-60
2022/06/11 05:57:56;;;;;;;2.38;1.00;;;;;;;16.42;100.00;98977.28;15286594;19;20031;-62
2022/06/11 06:03:01;;;;;;;4.07;0.93;;;;;;;16.53;100.00;98976.00;15288107;19;20006;-62
2022/06/11 06:08:09;;;;;;;2.83;1.05;;;;;;;16.60;100.00;98972.34;15283320;19;20007;-63
2022/06/11 06:18:32;;;;;;;2.15;0.93;;;;;;;16.96;100.00;98972.66;15279990;19;20011;-62
2022/06/11 06:23:40;;;;;;;3.97;1.30;;;;;;;17.07;100.00;98981.16;15287297;19;20010;-61
2022/06/11 06:28:45;;;;;;;3.10;1.10;;;;;;;17.20;100.00;98969.63;15286460;19;20332;-62
2022/06/11 06:33:51;;;;;;;1.77;1.10;;;;;;;17.37;100.00;98974.81;15288350;19;20356;-63
2022/06/11 06:38:58;;;;;;;2.55;1.05;;;;;;;17.52;100.00;98978.34;15275377;19;20035;-63
2022/06/11 06:44:04;;;;;;;3.47;1.30;;;;;;;17.73;100.00;98990.31;15282829;19;20023;-62
2022/06/11 06:49:09;;;;;;;1.38;1.00;;;;;;;17.82;100.00;98982.84;15279259;19;20010;-61
2022/06/11 06:54:16;;;;;;;3.08;1.10;;;;;;;17.98;100.00;98988.09;15285620;19;20023;-63
2022/06/11 06:59:22;;;;;;;2.20;1.15;;;;;;;18.14;100.00;98983.38;15285800;19;20014;-63
2022/06/11 07:04:27;;;;;;;1.83;1.00;;;;;;;18.39;100.00;98988.41;15285468;19;20031;-63
2022/06/11 07:09:36;;;;;;;1.95;1.00;;;;;;;18.56;100.00;98988.94;15286965;19;20018;-64
2022/06/11 07:14:41;;;;;;;3.50;1.00;;;;;;;18.75;100.00;98990.13;15278274;19;20014;-62
2022/06/11 07:19:49;;;;;;;2.17;1.00;;;;;;;19.01;100.00;98986.72;15284768;19;20021;-64
2022/06/11 07:24:57;;;;;;;2.05;1.00;;;;;;;19.21;100.00;98983.25;14771144;19;10000423;-64
2022/06/11 07:30:07;;;;;;;2.22;1.10;;;;;;;19.32;100.00;98987.28;15285827;19;20014;-63
2022/06/11 07:35:18;;;;;;;3.67;1.00;;;;;;;19.53;100.00;98975.38;15285158;19;20027;-62
2022/06/11 07:40:27;;;;;;;2.45;1.10;;;;;;;19.64;100.00;98974.78;15288792;19;20015;-63
2022/06/11 07:45:32;;;;;;;4.30;1.15;;;;;;;19.82;100.00;98979.66;15279451;19;20031;-63
2022/06/11 07:50:39;;;;;;;2.63;1.10;;;;;;;20.06;100.00;98987.47;15286504;19;20035;-63
2022/06/11 07:55:56;;;;;;;1.98;0.80;;;;;;;20.24;100.00;98978.63;15280870;19;20628;-63
2022/06/11 08:01:02;;;;;;;4.60;1.08;;;;;;;20.37;100.00;98986.84;15287184;19;20026;-61
2022/06/11 08:06:08;;;;;;;1.88;0.90;;;;;;;20.62;100.00;98984.31;15290674;19;20015;-62
2022/06/11 08:11:16;;;;;;;3.40;1.23;;;;;;;20.73;100.00;98993.75;15284636;19;20019;-63
2022/06/11 08:16:21;;;;;;;2.33;1.00;;;;;;;20.87;100.00;98988.28;15284968;19;20010;-63
2022/06/11 08:21:26;;;;;;;1.75;0.93;;;;;;;21.11;100.00;98983.16;15295562;19;20031;-63
2022/06/11 08:26:34;;;;;;;2.70;1.10;;;;;;;21.32;100.00;98984.78;15294668;19;20014;-61
2022/06/11 08:31:39;;;;;;;3.35;1.00;;;;;;;21.55;100.00;98984.22;15293985;19;20021;-63
2022/06/11 08:36:44;;;;;;;3.15;1.05;;;;;;;21.76;100.00;98982.22;15294544;19;20019;-62
2022/06/11 08:41:51;;;;;;;1.70;0.90;;;;;;;22.00;100.00;98986.09;15294673;19;20010;-61
2022/06/11 08:47:02;;;;;;;2.28;0.90;;;;;;;22.28;100.00;98974.66;15298390;19;20035;-62
2022/06/11 08:52:13;;;;;;;2.07;1.00;;;;;;;22.40;99.33;98988.50;15288277;19;20018;-63
2022/06/11 08:57:32;;;;;;;3.38;1.00;;;;;;;22.67;97.13;98980.03;15295133;19;20456;-63
2022/06/11 09:02:54;;;;;;;3.53;1.00;;;;;;;22.89;94.33;98974.09;15287575;19;20038;-63
2022/06/11 09:08:22;;;;;;;3.03;1.00;;;;;;;23.14;91.29;98975.94;15298195;19;20010;-62
2022/06/11 09:14:09;;;;;;;1.88;0.90;;;;;;;23.39;84.75;98976.72;15288592;19;20018;-63
2022/06/11 09:19:29;;;;;;;1.05;0.70;;;;;;;23.79;86.77;98975.31;15288273;19;20020;-63
2022/06/11 09:25:01;;;;;;;3.63;0.90;;;;;;;23.82;68.59;98972.09;15289608;19;20029;-63
2022/06/11 09:30:11;;;;;;;2.65;1.00;;;;;;;23.65;66.06;98979.31;15294109;19;20032;-62
2022/06/11 09:35:22;;;;;;;1.77;0.77;;;;;;;23.81;64.63;98972.34;15289924;19;20420;-63
2022/06/11 09:40:38;;;;;;;2.97;0.80;;;;;;;23.90;61.41;98968.16;15288189;19;20344;-53
2022/06/11 09:45:53;;;;;;;2.70;0.90;;;;;;;23.79;59.61;98971.72;15284367;19;20373;-55
2022/06/11 09:51:05;;;;;;;1.80;0.80;;;;;;;23.80;58.40;98982.50;15289921;19;20011;-50
2022/06/11 09:56:14;;;;;;;2.50;0.90;;;;;;;23.63;59.09;98970.47;15282542;19;20014;-50
2022/06/11 10:01:42;;;;;;;2.30;0.88;;;;;;;23.67;60.18;98971.66;15288106;19;20011;-55
2022/06/11 10:06:54;;;;;;;1.83;0.88;;;;;;;23.76;61.57;98972.19;15285174;19;20011;-50
2022/06/11 10:12:06;;;;;;;2.10;0.90;;;;;;;23.67;59.51;98977.16;15285681;19;20037;-55
2022/06/11 10:17:22;;;;;;;2.35;0.80;;;;;;;23.89;61.49;98968.38;15287623;19;20022;-50
2022/06/11 10:22:29;;;;;;;2.90;0.70;;;;;;;23.81;59.43;98978.66;15286131;19;20022;-53
2022/06/11 10:27:40;;;;;;;1.88;0.73;;;;;;;23.77;56.70;98977.44;15281374;19;20037;-50
2022/06/11 10:32:51;;;;;;;2.13;0.85;;;;;;;23.97;57.11;98971.69;15285401;19;20010;-55
2022/06/11 10:38:02;;;;;;;3.42;1.02;;;;;;;24.18;55.60;98974.94;15280390;19;20027;-51
2022/06/11 10:43:16;;;;;;;3.00;0.85;;;;;;;23.88;55.31;98973.06;15284458;19;20053;-49
2022/06/11 10:48:26;;;;;;;4.68;1.00;;;;;;;23.75;56.48;98967.75;15288036;19;20429;-52
2022/06/11 10:53:38;;;;;;;1.52;0.77;;;;;;;23.72;57.18;98965.47;15280931;19;20035;-53
2022/06/11 10:58:48;;;;;;;2.05;0.80;;;;;;;23.41;59.47;98967.38;15278633;19;20010;-51
2022/06/11 11:04:08;;;;;;;3.95;0.82;;;;;;;23.69;62.95;98962.13;15285588;19;20027;-50
2022/06/11 11:09:15;;;;;;;1.98;0.73;;;;;;;23.70;60.86;98954.72;15280579;19;20047;-51
2022/06/11 11:14:23;;;;;;;1.45;0.80;;;;;;;24.03;56.42;98947.88;15285574;19;20014;-52
2022/06/11 11:19:34;;;;;;;2.78;0.82;;;;;;;24.16;53.73;98949.59;15280326;19;20014;-52
2022/06/11 11:24:43;;;;;;;1.63;0.70;;;;;;;24.48;53.68;98952.00;15284583;19;20014;-50
2022/06/11 11:29:53;;;;;;;1.98;0.80;;;;;;;24.55;52.80;98944.44;15274473;19;20021;-50
2022/06/11 11:35:00;;;;;;;2.97;0.80;;;;;;;24.81;52.11;98941.47;15281688;19;20364;-53
2022/06/11 11:40:27;;;;;;;1.73;0.80;;;;;;;25.43;51.96;98937.22;15276459;19;20027;-50
2022/06/11 11:45:44;;;;;;;1.85;0.70;;;;;;;25.59;52.12;98932.81;15281156;19;20030;-49
2022/06/11 11:50:56;;;;;;;1.73;0.80;;;;;;;25.50;51.03;98933.25;15279833;19;20278;-50
2022/06/11 11:56:03;;;;;;;4.15;0.77;;;;;;;25.09;52.08;98929.66;15280112;19;20174;-53
2022/06/11 12:01:11;;;;;;;1.45;0.80;;;;;;;25.39;52.16;98925.81;15275325;19;20506;-49
2022/06/11 12:06:30;;;;;;;4.40;1.00;;;;;;;25.26;51.64;98929.72;15280332;19;20035;-53
2022/06/11 12:11:39;;;;;;;2.33;0.73;;;;;;;25.30;48.55;98930.06;15280778;19;20043;-50
2022/06/11 12:16:51;;;;;;;2.13;0.85;;;;;;;25.52;49.10;98922.78;15251052;19;20018;-53
2022/06/11 12:22:04;;;;;;;1.40;0.80;;;;;;;25.26;49.60;98915.06;15279411;19;20023;-57
2022/06/11 12:27:15;;;;;;;1.42;0.75;;;;;;;25.45;48.48;98924.88;15279035;19;20387;-54
2022/06/11 12:32:23;;;;;;;1.30;0.60;;;;;;;25.51;49.60;98912.03;15278006;19;20014;-52
2022/06/11 12:37:39;;;;;;;1.50;0.80;;;;;;;25.47;46.92;98911.66;15274721;19;20023;-54
2022/06/11 12:42:53;;;;;;;3.22;0.70;;;;;;;25.28;49.46;98912.91;15277965;19;20621;-56
2022/06/11 12:48:22;;;;;;;1.38;0.68;;;;;;;25.03;48.82;98911.31;15273932;19;20044;-57
2022/06/11 12:53:46;;;;;;;2.22;0.80;;;;;;;24.87;49.84;98919.25;15277085;19;20011;-55
2022/06/11 12:59:10;;;;;;;1.55;0.80;;;;;;;24.77;51.20;98921.78;15277595;19;20035;-49
2022/06/11 13:04:30;;;;;;;2.28;0.90;;;;;;;24.70;49.54;98918.34;15294864;19;20018;-54
2022/06/11 13:09:51;;;;;;;1.63;0.80;;;;;;;24.85;50.84;98923.34;15289781;19;20034;-55
2022/06/11 13:15:27;;;;;;;1.70;0.70;;;;;;;24.63;50.53;98929.47;15293923;19;20439;-55
2022/06/11 13:20:38;;;;;;;1.33;0.60;;;;;;;24.70;51.36;98919.16;15285193;19;20032;-50
2022/06/11 13:25:55;;;;;;;3.10;0.70;;;;;;;24.77;50.91;98919.03;15291558;19;20022;-50
2022/06/11 13:31:09;;;;;;;1.27;0.80;;;;;;;24.56;53.00;98917.75;15291124;19;20479;-55
2022/06/11 13:36:23;;;;;;;2.50;0.50;;;;;;;24.74;54.45;98914.03;15289356;19;20014;-50
2022/06/11 13:41:53;;;;;;;1.52;0.70;;;;;;;24.73;52.81;98912.38;15285270;19;20050;-51
2022/06/11 13:47:20;;;;;;;2.13;1.10;;;;;;;24.80;53.15;98906.72;15292306;19;20014;-53
2022/06/11 13:58:17;;;;;;;1.42;0.70;;;;;;;25.25;51.18;98897.72;15289158;19;20003;-52
2022/06/11 14:04:07;;;;;;;1.45;0.80;;;;;;;25.67;50.27;98894.63;15284818;19;20023;-52
2022/06/11 14:14:46;;;;;;;1.65;0.80;;;;;;;25.95;49.83;98883.78;15279375;19;20039;-54
2022/06/11 14:19:51;;;;;;;2.05;0.80;;;;;;;25.95;48.61;98889.28;15285866;19;20014;-53
2022/06/11 14:25:00;;;;;;;3.40;0.80;;;;;;;25.95;49.63;98886.53;15285882;19;20483;-55
2022/06/11 14:30:29;;;;;;;2.38;0.77;;;;;;;26.21;48.39;98879.53;15286972;19;20021;-54
2022/06/11 14:35:39;;;;;;;1.55;0.60;;;;;;;26.27;47.78;98877.69;15293231;19;20014;-52
2022/06/11 14:40:46;;;;;;;2.73;0.90;;;;;;;26.07;48.76;98881.75;15292541;19;20018;-57
2022/06/11 14:46:01;;;;;;;1.80;0.65;;;;;;;25.59;50.03;98875.75;15289719;19;20014;-54
2022/06/11 14:51:19;;;;;;;1.15;0.60;;;;;;;25.67;49.50;98880.03;15291791;19;20010;-53
2022/06/11 14:56:45;;;;;;;2.22;0.77;;;;;;;25.69;50.17;98875.09;15286603;19;20479;-56
2022/06/11 15:02:09;;;;;;;1.48;0.70;;;;;;;25.36;51.48;98873.91;15288351;19;20003;-52
2022/06/11 15:07:53;;;;;;;3.22;0.80;;;;;;;25.20;52.48;98881.91;15289879;19;20018;-52
2022/06/11 15:13:40;;;;;;;1.50;0.70;;;;;;;24.87;55.25;98874.34;15285717;19;20440;-55
2022/06/11 15:18:52;;;;;;;2.25;0.80;;;;;;;24.63;57.48;98874.38;15278758;19;20011;-50
2022/06/11 15:24:00;;;;;;;1.20;0.55;;;;;;;24.64;57.87;98872.47;15289106;19;20015;-52
2022/06/11 15:29:14;;;;;;;4.82;0.80;;;;;;;24.78;60.09;98871.13;15283668;19;20010;-53
2022/06/11 15:34:29;;;;;;;2.00;0.70;;;;;;;24.58;61.95;98868.72;15288416;19;20333;-54
2022/06/11 15:39:38;;;;;;;2.15;0.73;;;;;;;24.61;61.50;98874.63;15285696;19;20021;-64
2022/06/11 15:44:47;;;;;;;5.47;1.00;;;;;;;24.83;62.85;98868.47;15277336;19;20014;-64
2022/06/11 15:50:13;;;;;;;2.35;1.00;;;;;;;25.07;62.06;98877.50;15288370;19;20010;-62
2022/06/11 15:55:24;;;;;;;1.83;0.77;;;;;;;24.97;61.62;98871.78;15284629;19;20788;-63
2022/06/11 16:00:32;;;;;;;;;;;;;;;25.07;63.09;98869.22;15280370;19;20010;-63
2022/06/11 16:05:49;;;;;;;1.60;0.70;;;;;;;24.99;63.34;98871.56;15283574;19;19919;-62
2022/06/11 16:11:01;;;;;;;3.40;0.90;;;;;;;24.83;63.19;98879.50;15283566;19;20488;-63
2022/06/11 16:16:19;;;;;;;2.22;0.95;;;;;;;24.99;61.52;98874.31;15283613;19;20100;-64
2022/06/11 16:21:29;;;;;;;1.40;0.60;;;;;;;25.05;60.33;98881.59;15274758;19;20026;-62
2022/06/11 16:26:44;;;;;;;1.75;0.70;;;;;;;25.28;58.84;98877.06;15280189;19;20014;-63
2022/06/11 16:31:49;;;;;;;1.83;0.75;;;;;;;25.60;55.17;98877.41;15277969;19;20049;-66
2022/06/11 16:37:17;;;;;;;1.40;0.70;;;;;;;25.65;55.58;98879.44;15292249;19;20017;-62
2022/06/11 16:47:46;;;;;;;0.70;0.50;;;;;;;25.65;53.47;98874.72;15297283;19;20041;-63
2022/06/11 16:58:40;;;;;;;1.63;0.63;;;;;;;25.80;54.59;98862.28;15293457;19;20035;-65
2022/06/11 17:03:49;;;;;;;1.50;0.52;;;;;;;25.71;52.16;98864.63;15265077;19;20041;-64
2022/06/11 17:08:57;;;;;;;1.60;0.70;;;;;;;25.76;53.70;98869.38;15295225;19;20014;-64
2022/06/11 17:14:06;;;;;;;2.58;0.73;;;;;;;25.65;54.03;98869.22;15288889;19;20007;-64
2022/06/11 17:19:22;;;;;;;1.23;0.70;;;;;;;25.73;53.96;98869.91;15290220;19;20018;-65
2022/06/11 17:24:33;;;;;;;1.58;0.80;;;;;;;26.30;54.36;98863.34;15284377;19;20061;-66
2022/06/11 17:29:39;;;;;;;1.30;0.70;;;;;;;26.72;51.93;98857.31;15291865;19;20037;-64
2022/06/11 17:34:45;;;;;;;1.33;0.65;;;;;;;26.67;50.90;98853.66;15289940;19;20014;-62
2022/06/11 17:39:52;;;;;;;0.60;0.50;;;;;;;26.90;50.84;98860.84;15290604;19;20026;-59
2022/06/11 17:44:57;;;;;;;1.27;0.50;;;;;;;27.10;50.19;98859.44;15292747;19;20014;-63
2022/06/11 17:50:03;;;;;;;1.25;0.70;;;;;;;27.32;50.38;98851.09;15286113;19;20031;-60
2022/06/11 17:55:14;;;;;;;1.23;0.60;;;;;;;27.43;50.61;98861.16;15292200;19;20023;-62
2022/06/11 18:00:22;;;;;;;1.20;0.45;;;;;;;27.10;50.54;98851.97;15281464;19;20026;-62
2022/06/11 18:05:32;;;;;;;1.13;0.50;;;;;;;26.75;50.28;98848.47;15289908;19;20022;-59
2022/06/11 18:10:42;;;;;;;1.52;0.60;;;;;;;26.25;51.42;98855.84;15284474;19;20024;-60
2022/06/11 18:15:50;;;;;;;0.70;0.50;;;;;;;26.18;52.42;98846.91;15289899;19;20053;-62
2022/06/11 18:20:55;;;;;;;1.52;0.50;;;;;;;26.15;52.39;98855.69;15284350;19;20017;-65
2022/06/11 18:26:03;;;;;;;0.77;0.47;;;;;;;25.65;52.92;98852.66;15292567;19;20366;-65
2022/06/11 18:31:09;;;;;;;1.20;0.60;;;;;;;25.64;53.74;98847.41;15281547;19;20359;-63
2022/06/11 18:36:14;;;;;;;2.25;0.60;;;;;;;25.96;53.93;98841.28;15285930;19;20018;-63
2022/06/11 18:41:21;;;;;;;1.50;0.57;;;;;;;26.00;53.33;98839.69;15284792;19;20014;-64
2022/06/11 18:46:26;;;;;;;2.58;0.73;;;;;;;25.91;53.94;98842.03;15289323;19;20509;-65
2022/06/11 18:51:32;;;;;;;0.65;0.40;;;;;;;25.76;54.33;98845.41;15287091;19;20010;-64
2022/06/11 18:56:41;;;;;;;0.90;0.50;;;;;;;25.64;54.22;98847.41;15284809;19;20250;-61
2022/06/11 19:01:45;;;;;;;1.20;0.73;;;;;;;25.45;54.93;98852.31;15277923;19;20022;-63
2022/06/11 19:06:51;;;;;;;1.15;0.60;;;;;;;25.22;55.77;98854.94;15284931;19;20046;-63
2022/06/11 19:11:59;;;;;;;1.58;0.63;;;;;;;24.95;55.51;98860.16;15281285;19;20023;-64
2022/06/11 19:17:05;;;;;;;1.40;0.60;;;;;;;24.65;56.00;98860.34;15285928;19;20015;-66
2022/06/11 19:22:13;;;;;;;1.42;0.70;;;;;;;24.37;59.27;98864.72;15278649;19;20310;-67
2022/06/11 19:27:21;;;;;;;1.50;0.70;;;;;;;24.07;63.47;98869.28;15284211;19;20014;-65
2022/06/11 19:32:26;;;;;;;1.02;0.60;;;;;;;23.83;65.79;98866.47;15277353;19;20027;-66
2022/06/11 19:37:31;;;;;;;2.03;0.73;;;;;;;23.54;66.90;98876.44;15280751;19;20006;-67
2022/06/11 19:42:39;;;;;;;0.55;0.52;;;;;;;23.22;69.71;98873.97;15278478;19;20018;-67
2022/06/11 19:47:45;;;;;;;1.17;0.60;;;;;;;22.99;72.71;98878.22;15276629;19;20014;-67
2022/06/11 19:52:51;;;;;;;1.25;0.63;;;;;;;22.77;76.26;98870.47;15280715;19;20014;-67
2022/06/11 19:57:58;;;;;;;1.50;0.45;;;;;;;22.58;79.07;98882.53;15281751;19;20018;-67
2022/06/11 20:03:04;;;;;;;0.82;0.50;;;;;;;22.38;81.21;98889.06;15279296;19;20022;-66
2022/06/11 20:08:09;;;;;;;2.53;1.00;;;;;;;22.13;89.06;98892.69;15273578;19;20394;-66
2022/06/11 20:13:18;;;;;;;2.92;0.60;;;;;;;21.91;91.44;98892.25;15276426;19;20018;-67
2022/06/11 20:18:24;;;;;;;1.85;0.70;;;;;;;21.66;92.80;98898.53;15274731;19;20057;-66
2022/06/11 20:23:29;;;;;;;2.05;0.70;;;;;;;21.44;96.75;98895.31;15276646;19;20018;-66
2022/06/11 20:28:37;;;;;;;1.55;0.77;;;;;;;21.08;100.00;98891.28;15275687;19;20735;-65
2022/06/11 20:33:42;;;;;;;1.73;0.70;;;;;;;21.00;100.00;98894.25;15277845;19;20035;-68
2022/06/11 20:38:49;;;;;;;1.05;0.68;;;;;;;20.90;100.00;98884.63;15273326;19;20025;-66
2022/06/11 20:43:57;;;;;;;3.33;0.80;;;;;;;20.76;100.00;98886.56;15277177;19;20384;-67
2022/06/11 20:49:41;;;;;;;1.05;0.68;;;;;;;20.59;100.00;98883.44;15275783;19;20031;-67
2022/06/11 20:54:27;;;;;;;1.63;0.70;;;;;;;20.33;100.00;98885.19;15278230;19;20011;-67
2022/06/11 20:59:34;;;;;;;2.33;0.60;;;;;;;20.13;100.00;98876.19;15279672;19;20377;-66
2022/06/11 21:04:39;;;;;;;2.63;0.80;;;;;;;20.03;100.00;98879.34;15278234;19;20098;-65
2022/06/11 21:09:45;;;;;;;3.13;0.80;;;;;;;19.87;100.00;98875.16;15272348;19;20081;-64
2022/06/11 21:14:53;;;;;;;1.65;0.80;;;;;;;19.77;100.00;98875.53;15273275;19;20447;-65
2022/06/11 21:19:58;;;;;;;1.40;0.60;;;;;;;19.67;100.00;98869.63;15273523;19;20028;-66
2022/06/11 21:25:06;;;;;;;3.33;0.70;;;;;;;19.65;100.00;98879.94;15287647;19;20018;-65
2022/06/11 21:30:16;;;;;;;0.80;0.63;;;;;;;19.64;100.00;98887.31;15290207;19;20146;-65
2022/06/11 21:35:27;;;;;;;1.83;0.70;;;;;;;19.52;100.00;98878.88;15290506;19;20018;-67
2022/06/11 21:40:33;;;;;;;1.20;0.60;;;;;;;19.37;100.00;98883.69;15288046;19;20037;-58
2022/06/11 21:45:40;;;;;;;1.45;0.70;;;;;;;19.24;100.00;98893.53;15291304;19;20037;-46
2022/06/11 21:50:45;;;;;;;1.27;0.68;;;;;;;18.96;100.00;98888.22;15294945;19;20010;-49
2022/06/11 21:55:50;;;;;;;2.90;0.75;;;;;;;18.73;100.00;98894.81;15291901;19;20053;-49
2022/06/11 22:01:16;;;;;;;2.28;0.85;;;;;;;18.52;100.00;98900.38;15293942;19;20018;-51
2022/06/11 22:06:21;;;;;;;1.70;0.80;;;;;;;18.38;100.00;98896.69;15293978;19;20077;-55
2022/06/11 22:11:33;;;;;;;1.33;0.80;;;;;;;18.32;100.00;98896.47;15294507;19;20007;-46
2022/06/11 22:16:41;;;;;;;2.58;0.90;;;;;;;18.31;100.00;98892.06;15292699;19;20086;-49
2022/06/11 22:21:48;;;;;;;1.33;0.80;;;;;;;18.33;100.00;98891.84;15290914;19;20480;-53
2022/06/11 22:26:53;;;;;;;1.48;0.80;;;;;;;18.32;100.00;98887.44;15292500;19;20018;-46
2022/06/11 22:32:01;;;;;;;1.52;0.80;;;;;;;18.33;100.00;98886.38;15288576;19;20340;-55
2022/06/11 22:37:06;;;;;;;1.88;0.75;;;;;;;18.29;100.00;98880.50;15295584;19;20499;-49
2022/06/11 22:42:12;;;;;;;1.65;0.77;;;;;;;18.24;100.00;98873.97;15290053;19;20018;-50
2022/06/11 22:47:20;;;;;;;1.40;0.80;;;;;;;18.24;100.00;98879.41;15289914;19;20018;-52
2022/06/11 22:52:25;;;;;;;1.40;0.80;;;;;;;18.22;100.00;98876.03;15290431;19;20006;-53
2022/06/11 22:57:30;;;;;;;2.60;0.88;;;;;;;18.21;100.00;98890.72;15289120;19;21137;-50
2022/06/11 23:02:37;;;;;;;3.45;0.88;;;;;;;18.26;100.00;98885.50;15287997;19;20990;-46
2022/06/11 23:07:43;;;;;;;1.35;0.68;;;;;;;18.21;100.00;98888.84;15290611;19;20043;-49
2022/06/11 23:12:48;;;;;;;1.85;0.90;;;;;;;18.08;100.00;98886.84;15288729;19;20020;-52
2022/06/11 23:17:56;;;;;;;1.33;0.88;;;;;;;17.93;100.00;98880.66;15290040;19;20010;-48
2022/06/11 23:23:01;;;;;;;3.20;1.00;;;;;;;17.79;100.00;98875.09;15284692;19;20391;-48
2022/06/11 23:28:08;;;;;;;1.83;0.90;;;;;;;17.72;100.00;98868.72;15034332;19;5001444;-56
2022/06/11 23:33:17;;;;;;;2.95;1.02;;;;;;;17.66;100.00;98864.06;15283196;19;20298;-48
2022/06/11 23:38:24;;;;;;;2.03;0.90;;;;;;;17.62;100.00;98873.66;15290068;19;20547;-48
2022/06/11 23:43:29;;;;;;;3.38;0.98;;;;;;;17.64;100.00;98852.50;15286680;19;20369;-51
2022/06/11 23:48:40;;;;;;;3.47;1.02;;;;;;;17.65;100.00;98854.19;15289703;19;20691;-47
2022/06/11 23:53:45;;;;;;;2.97;0.90;;;;;;;17.64;100.00;98856.06;15282494;19;20043;-48
2022/06/11 23:58:51;;;;;;;2.15;0.90;;;;;;;17.67;100.00;98860.31;15290550;19;20033;-46
